createdAt,value
2022-08-19T00:01:53.502Z,41.28
2022-08-19T00:04:29.001Z,41.75
2022-08-19T00:06:57.130Z,41.69
2022-08-19T00:09:25.563Z,41.64
2022-08-19T00:11:53.177Z,41.67
2022-08-19T00:14:21.989Z,41.63
2022-08-19T00:16:49.727Z,41.81
2022-08-19T00:19:17.661Z,42.19
2022-08-19T00:21:44.744Z,42.12
2022-08-19T00:24:14.259Z,42.72
2022-08-19T00:26:42.372Z,42.66
2022-08-19T00:29:12.374Z,42.91
2022-08-19T00:31:39.518Z,42.48
2022-08-19T00:34:06.357Z,43.04
2022-08-19T00:36:34.270Z,42.97
2022-08-19T00:39:02.339Z,43.62
2022-08-19T00:41:29.686Z,43.63
2022-08-19T00:44:11.756Z,43.37
2022-08-19T00:46:41.178Z,43.98
2022-08-19T00:49:15.866Z,44.58
2022-08-19T00:51:45.456Z,44.79
2022-08-19T00:54:12.841Z,44.94
2022-08-19T00:56:39.974Z,44.88
2022-08-19T00:59:10.215Z,45.16
2022-08-19T01:01:40.161Z,45.18
2022-08-19T01:04:07.107Z,45.62
2022-08-19T01:06:34.910Z,46.08
2022-08-19T01:09:01.849Z,46.06
2022-08-19T01:11:30.753Z,46.03
2022-08-19T01:13:57.966Z,46.08
2022-08-19T01:16:28.526Z,45.99
2022-08-19T01:18:55.586Z,46.11
2022-08-19T01:21:27.237Z,45.75
2022-08-19T01:23:54.490Z,45.84
2022-08-19T01:26:24.696Z,45.37
2022-08-19T01:28:59.464Z,45.01
2022-08-19T01:31:33.205Z,44.62
2022-08-19T01:34:01.979Z,44.36
2022-08-19T01:36:31.399Z,43.57
2022-08-19T01:38:59.285Z,43.79
2022-08-19T01:41:26.870Z,43.38
2022-08-19T01:44:09.807Z,42.86
2022-08-19T01:46:42.418Z,42.42
2022-08-19T01:49:09.500Z,42.01
2022-08-19T01:51:38.465Z,42.30
2022-08-19T01:54:11.582Z,41.60
2022-08-19T01:56:39.380Z,41.41
2022-08-19T01:59:11.386Z,42.40
2022-08-19T02:01:38.377Z,41.65
2022-08-19T02:04:06.843Z,41.23
2022-08-19T02:06:34.384Z,41.81
2022-08-19T02:09:01.670Z,41.62
2022-08-19T02:11:35.272Z,41.76
2022-08-19T02:14:07.435Z,41.27
2022-08-19T02:16:35.690Z,41.77
2022-08-19T02:19:02.937Z,41.61
2022-08-19T02:21:31.743Z,41.41
2022-08-19T02:23:59.527Z,40.59
2022-08-19T02:26:27.767Z,40.90
2022-08-19T02:28:55.788Z,40.92
2022-08-19T02:31:25.601Z,40.47
2022-08-19T02:33:56.508Z,40.06
2022-08-19T02:36:25.494Z,40.12
2022-08-19T02:38:54.357Z,40.77
2022-08-19T02:41:29.470Z,40.20
2022-08-19T02:44:22.979Z,40.33
2022-08-19T02:46:47.943Z,40.44
2022-08-19T02:49:17.692Z,40.85
2022-08-19T02:51:46.064Z,40.98
2022-08-19T02:54:13.940Z,40.18
2022-08-19T02:56:42.626Z,40.75
2022-08-19T02:59:11.206Z,40.47
2022-08-19T03:01:40.889Z,40.85
2022-08-19T03:04:09.414Z,41.22
2022-08-19T03:06:42.440Z,40.99
2022-08-19T03:09:09.821Z,41.19
2022-08-19T03:11:36.843Z,41.84
2022-08-19T03:14:05.878Z,42.14
2022-08-19T03:16:34.957Z,41.85
2022-08-19T03:19:02.963Z,41.40
2022-08-19T03:21:34.897Z,41.85
2022-08-19T03:24:05.865Z,41.93
2022-08-19T03:26:33.415Z,42.79
2022-08-19T03:29:05.488Z,42.75
2022-08-19T03:31:44.720Z,43.21
2022-08-19T03:34:23.998Z,43.42
2022-08-19T03:36:50.833Z,43.29
2022-08-19T03:39:18.577Z,43.36
2022-08-19T03:41:48.283Z,42.87
2022-08-19T03:44:19.422Z,42.79
2022-08-19T03:46:52.980Z,43.02
2022-08-19T03:49:21.047Z,43.17
2022-08-19T03:51:49.435Z,43.27
2022-08-19T03:54:19.715Z,43.38
2022-08-19T03:56:48.766Z,42.92
2022-08-19T03:59:26.234Z,42.83
2022-08-19T04:01:57.883Z,43.31
2022-08-19T04:04:25.450Z,43.75
2022-08-19T04:06:56.977Z,43.21
2022-08-19T04:09:24.055Z,43.43
2022-08-19T04:11:58.139Z,43.29
2022-08-19T04:14:32.795Z,43.13
2022-08-19T04:17:01.243Z,42.61
2022-08-19T04:19:30.697Z,42.25
2022-08-19T04:21:57.535Z,41.96
2022-08-19T04:24:24.780Z,41.97
2022-08-19T04:26:52.459Z,42.10
2022-08-19T04:29:26.548Z,42.11
2022-08-19T04:31:55.356Z,42.04
2022-08-19T04:34:25.125Z,42.91
2022-08-19T04:36:53.017Z,43.66
2022-08-19T04:39:50.512Z,42.98
2022-08-19T04:42:37.563Z,42.92
2022-08-19T04:45:12.473Z,42.99
2022-08-19T04:47:47.424Z,42.70
2022-08-19T04:50:27.496Z,42.76
2022-08-19T04:52:56.708Z,41.84
2022-08-19T04:55:26.515Z,41.80
2022-08-19T04:57:53.467Z,41.89
2022-08-19T05:00:20.480Z,41.76
2022-08-19T05:02:47.422Z,41.54
2022-08-19T05:05:14.351Z,41.12
2022-08-19T05:07:42.355Z,41.06
2022-08-19T05:10:09.517Z,41.25
2022-08-19T05:12:36.735Z,41.04
2022-08-19T05:15:06.917Z,40.56
2022-08-19T05:17:38.238Z,40.46
2022-08-19T05:20:26.746Z,40.45
2022-08-19T05:22:53.920Z,40.38
2022-08-19T05:25:22.112Z,40.13
2022-08-19T05:27:49.782Z,39.45
2022-08-19T05:30:17.851Z,39.49
2022-08-19T05:32:44.810Z,39.30
2022-08-19T05:35:13.012Z,39.12
2022-08-19T05:37:41.625Z,39.60
2022-08-19T05:40:09.984Z,39.45
2022-08-19T05:42:37.005Z,39.12
2022-08-19T05:45:05.539Z,38.87
2022-08-19T05:47:33.126Z,39.52
2022-08-19T05:50:00.519Z,38.98
2022-08-19T05:52:28.316Z,38.97
2022-08-19T05:54:56.991Z,38.83
2022-08-19T05:57:25.010Z,38.30
2022-08-19T05:59:57.923Z,38.46
2022-08-19T06:02:29.898Z,38.85
2022-08-19T06:04:56.895Z,38.46
2022-08-19T06:07:23.889Z,38.94
2022-08-19T06:10:00.135Z,38.87
2022-08-19T06:12:35.542Z,38.34
2022-08-19T06:15:09.180Z,38.44
2022-08-19T06:17:36.387Z,37.96
2022-08-19T06:20:10.806Z,37.58
2022-08-19T06:22:47.592Z,37.51
2022-08-19T06:25:15.863Z,37.65
2022-08-19T06:30:30.779Z,36.89
2022-08-19T06:32:57.784Z,36.76
2022-08-19T06:35:24.628Z,36.34
2022-08-19T06:37:51.613Z,35.81
2022-08-19T06:40:18.776Z,35.87
2022-08-19T06:42:53.033Z,35.41
2022-08-19T06:45:25.030Z,35.46
2022-08-19T06:48:00.736Z,34.85
2022-08-19T06:50:28.467Z,34.71
2022-08-19T06:52:55.476Z,34.91
2022-08-19T06:55:22.490Z,34.34
2022-08-19T06:57:49.483Z,34.40
2022-08-19T07:00:17.089Z,33.80
2022-08-19T07:02:49.761Z,33.53
2022-08-19T07:05:24.456Z,33.65
2022-08-19T07:07:51.285Z,33.16
2022-08-19T07:10:18.866Z,32.91
2022-08-19T07:12:46.375Z,32.35
2022-08-19T07:15:13.427Z,32.63
2022-08-19T07:17:41.862Z,32.72
2022-08-19T07:20:10.724Z,32.28
2022-08-19T07:22:39.551Z,31.98
2022-08-19T07:25:09.136Z,32.00
2022-08-19T07:27:36.228Z,31.65
2022-08-19T07:30:04.119Z,31.25
2022-08-19T07:32:32.645Z,31.40
2022-08-19T07:35:01.823Z,31.41
2022-08-19T07:37:32.980Z,31.16
2022-08-19T07:40:01.807Z,31.29
2022-08-19T07:42:30.873Z,31.27
2022-08-19T07:44:58.486Z,30.96
2022-08-19T07:47:50.228Z,30.59
2022-08-19T07:50:12.742Z,30.47
2022-08-19T07:52:40.815Z,30.07
2022-08-19T07:55:40.674Z,30.43
2022-08-19T07:57:58.183Z,30.14
2022-08-19T08:00:25.368Z,30.06
2022-08-19T08:02:55.744Z,30.40
2022-08-19T08:05:43.915Z,29.91
2022-08-19T08:08:31.151Z,30.25
2022-08-19T08:10:59.767Z,29.63
2022-08-19T08:13:28.205Z,29.89
2022-08-19T08:15:56.332Z,29.69
2022-08-19T08:18:27.617Z,28.93
2022-08-19T08:20:56.481Z,29.44
2022-08-19T08:23:23.890Z,28.99
2022-08-19T08:25:51.147Z,28.97
2022-08-19T08:28:21.023Z,29.27
2022-08-19T08:30:50.617Z,29.28
2022-08-19T08:33:33.217Z,28.81
2022-08-19T08:36:00.274Z,28.68
2022-08-19T08:38:27.321Z,28.17
2022-08-19T08:41:07.901Z,28.34
2022-08-19T08:43:38.501Z,27.80
2022-08-19T08:46:07.489Z,27.95
2022-08-19T08:48:59.396Z,28.42
2022-08-19T08:54:16.087Z,28.09
2022-08-19T08:56:44.510Z,27.72
2022-08-19T08:59:25.678Z,27.89
2022-08-19T09:01:52.593Z,28.17
2022-08-19T09:04:19.797Z,28.31
2022-08-19T09:06:53.218Z,27.96
2022-08-19T09:09:42.101Z,27.46
2022-08-19T09:12:15.038Z,27.89
2022-08-19T09:14:59.699Z,27.88
2022-08-19T09:17:36.324Z,27.01
2022-08-19T09:20:24.540Z,27.00
2022-08-19T09:22:53.379Z,26.54
2022-08-19T09:25:27.075Z,26.22
2022-08-19T09:28:01.238Z,26.01
2022-08-19T09:30:33.258Z,25.86
2022-08-19T09:33:00.918Z,25.95
2022-08-19T09:35:30.684Z,25.87
2022-08-19T09:37:59.560Z,25.68
2022-08-19T09:40:33.459Z,25.44
2022-08-19T09:43:13.173Z,25.13
2022-08-19T09:45:41.097Z,24.83
2022-08-19T09:48:07.890Z,25.00
2022-08-19T09:50:51.557Z,25.21
2022-08-19T09:53:20.162Z,25.32
2022-08-19T09:55:47.012Z,24.72
2022-08-19T09:58:13.844Z,24.65
2022-08-19T10:00:40.803Z,24.86
2022-08-19T10:03:07.597Z,24.52
2022-08-19T10:05:50.526Z,24.37
2022-08-19T10:08:31.556Z,24.52
2022-08-19T10:10:59.248Z,24.27
2022-08-19T10:13:28.932Z,24.09
2022-08-19T10:15:58.298Z,24.06
2022-08-19T10:18:26.558Z,24.20
2022-08-19T10:21:02.742Z,24.09
2022-08-19T10:23:33.751Z,23.66
2022-08-19T10:26:02.319Z,23.48
2022-08-19T10:28:29.123Z,24.43
2022-08-19T10:30:57.339Z,23.66
2022-08-19T10:33:53.034Z,23.68
2022-08-19T10:36:20.002Z,23.36
2022-08-19T10:38:56.090Z,23.39
2022-08-19T10:41:26.358Z,23.40
2022-08-19T10:43:55.623Z,22.94
2022-08-19T10:46:24.865Z,22.90
2022-08-19T10:48:52.713Z,22.64
2022-08-19T10:51:46.556Z,22.98
2022-08-19T10:54:16.692Z,22.60
2022-08-19T10:56:55.334Z,22.67
2022-08-19T10:59:35.337Z,22.89
2022-08-19T11:02:05.786Z,22.45
2022-08-19T11:04:33.758Z,22.32
2022-08-19T11:07:00.547Z,22.14
2022-08-19T11:09:33.946Z,21.84
2022-08-19T11:12:02.946Z,21.99
2022-08-19T11:14:34.391Z,22.17
2022-08-19T11:17:02.673Z,21.64
2022-08-19T11:19:29.532Z,21.64
2022-08-19T11:21:56.597Z,21.81
2022-08-19T11:24:26.894Z,21.46
2022-08-19T11:27:00.111Z,21.60
2022-08-19T11:29:29.030Z,21.00
2022-08-19T11:31:58.175Z,20.61
2022-08-19T11:34:28.737Z,20.80
2022-08-19T11:36:59.367Z,20.72
2022-08-19T11:39:28.236Z,20.80
2022-08-19T11:41:55.817Z,20.60
2022-08-19T11:44:22.790Z,20.50
2022-08-19T11:46:49.671Z,20.91
2022-08-19T11:49:20.842Z,20.73
2022-08-19T11:51:48.321Z,20.01
2022-08-19T11:54:17.276Z,19.44
2022-08-19T11:56:45.154Z,19.64
2022-08-19T11:59:14.733Z,19.54
2022-08-19T12:01:43.727Z,18.49
2022-08-19T12:04:11.365Z,18.05
2022-08-19T12:06:40.518Z,17.17
2022-08-19T12:09:10.531Z,16.97
2022-08-19T12:11:39.488Z,16.28
2022-08-19T12:14:07.828Z,15.74
2022-08-19T12:16:34.573Z,15.04
2022-08-19T12:19:06.089Z,14.86
2022-08-19T12:21:35.864Z,13.68
2022-08-19T12:24:04.925Z,13.83
2022-08-19T12:26:32.569Z,13.02
2022-08-19T12:29:00.748Z,12.64
2022-08-19T12:31:29.508Z,12.49
2022-08-19T12:33:56.436Z,12.28
2022-08-19T12:36:24.524Z,11.66
2022-08-19T12:38:52.802Z,11.56
2022-08-19T12:41:20.253Z,10.81
2022-08-19T12:43:47.320Z,11.08
2022-08-19T12:46:15.296Z,11.32
2022-08-19T12:48:46.038Z,11.02
2022-08-19T12:51:20.714Z,10.70
2022-08-19T12:53:48.535Z,10.77
2022-08-19T12:56:15.902Z,10.80
2022-08-19T12:58:48.905Z,10.74
2022-08-19T13:01:21.981Z,10.40
2022-08-19T13:03:49.988Z,10.32
2022-08-19T13:06:19.462Z,10.02
2022-08-19T13:08:47.098Z,10.23
2022-08-19T13:11:17.730Z,11.55
2022-08-19T13:13:46.930Z,13.39
2022-08-19T13:16:15.381Z,14.98
2022-08-19T13:18:43.811Z,15.95
2022-08-19T13:21:14.594Z,16.82
2022-08-19T13:23:42.653Z,17.29
2022-08-19T13:26:12.750Z,18.07
2022-08-19T13:28:59.489Z,18.92
2022-08-19T13:31:47.122Z,18.79
2022-08-19T13:34:15.167Z,19.79
2022-08-19T13:36:42.005Z,20.04
2022-08-19T13:39:10.131Z,20.96
2022-08-19T13:41:38.274Z,20.65
2022-08-19T13:44:07.751Z,20.92
2022-08-19T13:46:34.707Z,21.80
2022-08-19T13:49:01.488Z,22.99
2022-08-19T13:51:28.306Z,23.69
2022-08-19T13:53:56.671Z,24.56
2022-08-19T13:56:26.251Z,24.78
2022-08-19T13:58:54.547Z,24.75
2022-08-19T14:01:25.675Z,25.28
2022-08-19T14:03:52.544Z,25.90
2022-08-19T14:06:20.030Z,26.28
2022-08-19T14:08:48.465Z,26.49
2022-08-19T14:11:15.878Z,27.12
2022-08-19T14:13:42.871Z,26.85
2022-08-19T14:16:15.031Z,27.25
2022-08-19T14:18:42.907Z,27.32
2022-08-19T14:21:16.530Z,27.23
2022-08-19T14:23:43.344Z,27.69
2022-08-19T14:26:13.217Z,27.50
2022-08-19T14:28:42.866Z,28.40
2022-08-19T14:31:11.522Z,27.95
2022-08-19T14:33:38.364Z,28.25
2022-08-19T14:36:07.071Z,28.28
2022-08-19T14:38:34.018Z,28.41
2022-08-19T14:41:14.995Z,28.83
2022-08-19T14:43:42.577Z,29.08
2022-08-19T14:46:11.402Z,29.21
2022-08-19T14:48:41.381Z,28.95
2022-08-19T14:51:08.968Z,28.73
2022-08-19T14:53:36.503Z,28.91
2022-08-19T14:56:09.338Z,29.10
2022-08-19T14:58:38.636Z,29.07
2022-08-19T15:01:06.146Z,28.94
2022-08-19T15:03:33.369Z,28.51
2022-08-19T15:06:05.709Z,28.90
2022-08-19T15:08:35.124Z,28.91
2022-08-19T15:11:03.042Z,28.49
2022-08-19T15:13:31.191Z,28.43
2022-08-19T15:15:58.442Z,28.91
2022-08-19T15:18:25.603Z,28.67
2022-08-19T15:20:52.533Z,28.95
2022-08-19T15:23:22.082Z,29.22
2022-08-19T15:25:49.647Z,29.59
2022-08-19T15:28:17.444Z,29.31
2022-08-19T15:30:44.823Z,29.20
2022-08-19T15:33:15.694Z,29.22
2022-08-19T15:35:43.645Z,29.31
2022-08-19T15:38:14.156Z,29.55
2022-08-19T15:40:42.346Z,29.62
2022-08-19T15:43:09.276Z,29.59
2022-08-19T15:45:36.279Z,29.45
2022-08-19T15:48:05.236Z,29.52
2022-08-19T15:50:32.327Z,29.42
2022-08-19T15:53:03.502Z,29.09
2022-08-19T15:55:34.754Z,29.06
2022-08-19T15:58:29.725Z,29.42
2022-08-19T16:01:27.035Z,30.23
2022-08-19T16:04:15.884Z,29.22
2022-08-19T16:06:49.308Z,29.12
2022-08-19T16:09:17.611Z,29.03
2022-08-19T16:11:46.426Z,28.83
2022-08-19T16:14:20.104Z,28.90
2022-08-19T16:16:47.893Z,28.81
2022-08-19T16:19:17.968Z,28.75
2022-08-19T16:21:47.692Z,28.86
2022-08-19T16:24:17.699Z,29.20
2022-08-19T16:26:48.476Z,29.04
2022-08-19T16:29:22.140Z,29.21
2022-08-19T16:32:02.781Z,28.93
2022-08-19T16:34:30.433Z,29.08
2022-08-19T16:36:57.456Z,28.87
2022-08-19T16:39:24.413Z,29.09
2022-08-19T16:41:51.747Z,29.12
2022-08-19T16:44:21.256Z,28.69
2022-08-19T16:46:58.289Z,28.51
2022-08-19T16:49:54.228Z,28.81
2022-08-19T16:52:18.954Z,28.94
2022-08-19T16:54:46.044Z,28.83
2022-08-19T16:57:13.720Z,29.41
2022-08-19T16:59:48.524Z,29.63
2022-08-19T17:02:21.915Z,29.68
2022-08-19T17:04:57.202Z,29.38
2022-08-19T17:07:26.220Z,29.30
2022-08-19T17:09:53.142Z,29.21
2022-08-19T17:12:19.967Z,29.39
2022-08-19T17:14:46.790Z,29.17
2022-08-19T17:17:13.792Z,28.96
2022-08-19T17:19:44.707Z,29.65
2022-08-19T17:22:13.117Z,29.38
2022-08-19T17:24:41.186Z,29.59
2022-08-19T17:27:09.111Z,29.46
2022-08-19T17:29:35.960Z,29.23
2022-08-19T17:32:03.375Z,28.91
2022-08-19T17:34:30.557Z,29.10
2022-08-19T17:36:57.514Z,28.87
2022-08-19T17:39:25.590Z,29.02
2022-08-19T17:41:52.429Z,29.24
2022-08-19T17:44:19.420Z,29.39
2022-08-19T17:46:47.176Z,29.25
2022-08-19T17:49:14.365Z,29.48
2022-08-19T17:51:46.937Z,29.18
2022-08-19T17:54:19.096Z,29.73
2022-08-19T17:56:46.663Z,29.20
2022-08-19T17:59:15.546Z,29.10
2022-08-19T18:01:53.084Z,29.04
2022-08-19T18:04:23.233Z,29.44
2022-08-19T18:06:52.982Z,29.43
2022-08-19T18:09:41.879Z,29.51
2022-08-19T18:12:11.666Z,29.38
2022-08-19T18:14:39.417Z,29.27
2022-08-19T18:17:11.960Z,29.05
2022-08-19T18:19:42.736Z,29.17
2022-08-19T18:22:13.413Z,29.56
2022-08-19T18:24:42.026Z,29.18
2022-08-19T18:27:10.181Z,29.55
2022-08-19T18:29:38.780Z,29.70
2022-08-19T18:32:12.202Z,29.60
2022-08-19T18:34:39.677Z,29.73
2022-08-19T18:37:06.549Z,29.83
2022-08-19T18:39:51.949Z,30.23
2022-08-19T18:42:37.344Z,30.42
2022-08-19T18:45:24.590Z,30.22
2022-08-19T18:48:18.498Z,30.54
2022-08-19T18:50:55.870Z,30.47
2022-08-19T18:53:22.702Z,30.66
2022-08-19T18:55:52.060Z,30.57
2022-08-19T18:58:18.802Z,30.64
2022-08-19T19:00:45.759Z,30.64
2022-08-19T19:03:12.562Z,30.88
2022-08-19T19:05:43.443Z,30.95
2022-08-19T19:08:12.247Z,30.86
2022-08-19T19:10:41.106Z,30.92
2022-08-19T19:13:08.023Z,31.39
2022-08-19T19:15:35.277Z,30.71
2022-08-19T19:18:02.082Z,31.07
2022-08-19T19:20:36.466Z,30.63
2022-08-19T19:23:04.096Z,30.70
2022-08-19T19:25:49.622Z,31.01
2022-08-19T19:28:30.956Z,30.83
2022-08-19T19:30:58.806Z,30.94
2022-08-19T19:33:27.445Z,30.72
2022-08-19T19:35:54.536Z,30.91
2022-08-19T19:38:21.550Z,31.03
2022-08-19T19:40:48.370Z,30.70
2022-08-19T19:43:18.444Z,31.09
2022-08-19T19:45:47.294Z,32.00
2022-08-19T19:48:16.478Z,31.60
2022-08-19T19:50:44.940Z,32.05
2022-08-19T19:53:11.909Z,31.82
2022-08-19T19:55:41.248Z,31.89
2022-08-19T19:58:08.698Z,32.45
2022-08-19T20:00:35.887Z,32.34
2022-08-19T20:03:02.890Z,32.26
2022-08-19T20:05:29.779Z,32.59
2022-08-19T20:08:15.319Z,33.00
2022-08-19T20:10:43.747Z,32.93
2022-08-19T20:13:11.662Z,33.12
2022-08-19T20:15:42.359Z,32.82
2022-08-19T20:18:11.108Z,33.09
2022-08-19T20:20:38.489Z,33.04
2022-08-19T20:23:06.181Z,32.80
2022-08-19T20:25:34.175Z,33.17
2022-08-19T20:28:01.496Z,33.05
2022-08-19T20:30:32.095Z,32.90
2022-08-19T20:33:00.096Z,33.05
2022-08-19T20:35:26.986Z,33.34
2022-08-19T20:37:58.106Z,33.68
2022-08-19T20:40:26.131Z,33.61
2022-08-19T20:42:54.702Z,33.46
2022-08-19T20:45:32.908Z,33.61
2022-08-19T20:48:02.982Z,33.95
2022-08-19T20:50:31.890Z,33.79
2022-08-19T20:52:58.844Z,33.79
2022-08-19T20:55:26.651Z,33.49
2022-08-19T20:57:53.849Z,33.46
2022-08-19T21:00:20.952Z,33.66
2022-08-19T21:02:47.817Z,33.13
2022-08-19T21:05:15.232Z,33.27
2022-08-19T21:07:42.191Z,33.09
2022-08-19T21:10:09.295Z,33.30
2022-08-19T21:12:36.417Z,32.96
2022-08-19T21:15:04.068Z,33.14
2022-08-19T21:17:31.612Z,32.80
2022-08-19T21:19:58.534Z,33.05
2022-08-19T21:22:25.399Z,33.43
2022-08-19T21:24:52.229Z,33.38
2022-08-19T21:27:19.213Z,33.19
2022-08-19T21:29:46.019Z,33.33
2022-08-19T21:32:14.315Z,33.11
2022-08-19T21:34:43.683Z,32.89
2022-08-19T21:37:25.765Z,32.79
2022-08-19T21:39:54.509Z,32.83
2022-08-19T21:42:23.346Z,32.58
2022-08-19T21:44:50.238Z,32.62
2022-08-19T21:47:17.177Z,32.47
2022-08-19T21:49:44.032Z,32.73
2022-08-19T21:52:10.859Z,32.57
2022-08-19T21:54:38.679Z,32.73
2022-08-19T21:57:07.060Z,32.30
2022-08-19T21:59:43.439Z,32.30
2022-08-19T22:02:21.300Z,32.31
2022-08-19T22:04:51.058Z,32.45
2022-08-19T22:07:18.926Z,32.54
2022-08-19T22:09:46.719Z,32.29
2022-08-19T22:12:25.042Z,32.75
2022-08-19T22:14:53.203Z,32.50
2022-08-19T22:17:20.285Z,32.45
2022-08-19T22:19:47.311Z,32.11
2022-08-19T22:22:24.311Z,32.57
2022-08-19T22:24:55.433Z,32.42
2022-08-19T22:27:22.259Z,32.64
2022-08-19T22:29:52.418Z,32.89
2022-08-19T22:32:28.071Z,33.02
2022-08-19T22:34:58.027Z,33.29
2022-08-19T22:37:25.905Z,33.31
2022-08-19T22:39:52.928Z,33.33
2022-08-19T22:42:21.171Z,33.69
2022-08-19T22:44:49.073Z,33.49
2022-08-19T22:47:16.135Z,33.89
2022-08-19T22:49:43.786Z,33.67
2022-08-19T22:52:20.121Z,33.99
2022-08-19T22:54:52.855Z,34.22
2022-08-19T22:57:21.319Z,34.33
2022-08-19T22:59:50.250Z,34.17
2022-08-19T23:02:27.404Z,34.76
2022-08-19T23:04:54.344Z,35.11
2022-08-19T23:07:23.656Z,34.82
2022-08-19T23:09:50.842Z,34.86
2022-08-19T23:12:26.598Z,34.90
2022-08-19T23:14:53.689Z,35.28
2022-08-19T23:17:20.620Z,35.52
2022-08-19T23:19:47.469Z,35.41
2022-08-19T23:22:18.532Z,35.39
2022-08-19T23:24:45.470Z,35.87
2022-08-19T23:27:31.041Z,35.60
2022-08-19T23:30:16.414Z,36.10
2022-08-19T23:32:43.477Z,36.01
2022-08-19T23:35:10.299Z,36.06
2022-08-19T23:37:37.571Z,36.35
2022-08-19T23:40:07.036Z,36.08
2022-08-19T23:42:34.561Z,35.79
2022-08-19T23:45:03.787Z,35.67
2022-08-19T23:47:32.210Z,35.68
2022-08-19T23:50:01.941Z,35.88
2022-08-19T23:52:29.567Z,35.92
2022-08-19T23:55:09.619Z,37.18
2022-08-19T23:57:36.741Z,37.62
